TimeCST,TemperatureF,Dew PointF,Humidity,Sea Level PressureIn,VisibilityMPH,Wind Direction,Wind SpeedMPH,Gust SpeedMPH,PrecipitationIn,Events,Conditions,WindDirDegrees,DateUTC
12:53 AM,35.1,32.0,89,29.99,10.0,South,5.8,-,N/A,,Clear,180,2011-11-11 06:53:00
1:53 AM,37.0,33.1,86,29.96,10.0,South,8.1,-,N/A,,Clear,180,2011-11-11 07:53:00
2:53 AM,35.6,30.2,81,29.92,10.0,South,4.6,-,N/A,,Clear,190,2011-11-11 08:53:00
3:53 AM,36.0,32.0,86,29.91,10.0,SSE,3.5,-,N/A,,Clear,160,2011-11-11 09:53:00
4:53 AM,33.1,30.0,89,29.91,10.0,SSW,4.6,-,N/A,,Clear,200,2011-11-11 10:53:00
5:53 AM,37.4,30.2,75,29.89,10.0,SW,8.1,-,N/A,,Clear,230,2011-11-11 11:53:00
6:53 AM,35.1,28.9,78,29.91,10.0,Calm,Calm,-,N/A,,Clear,0,2011-11-11 12:53:00
7:53 AM,36.0,30.0,79,29.91,10.0,South,5.8,-,N/A,,Clear,190,2011-11-11 13:53:00
8:53 AM,41.0,32.0,70,29.88,10.0,SSW,8.1,-,N/A,,Clear,210,2011-11-11 14:53:00
9:53 AM,46.4,33.8,62,29.89,10.0,SSW,5.8,-,N/A,,Clear,210,2011-11-11 15:53:00
10:53 AM,57.0,27.0,32,29.88,10.0,WNW,8.1,-,N/A,,Clear,300,2011-11-11 16:53:00
11:53 AM,60.1,28.9,31,29.87,10.0,North,5.8,-,N/A,,Clear,350,2011-11-11 17:53:00
12:53 PM,61.0,30.9,32,29.84,10.0,NNW,8.1,-,N/A,,Clear,330,2011-11-11 18:53:00
1:53 PM,62.1,30.9,31,29.83,10.0,Calm,Calm,-,N/A,,Clear,0,2011-11-11 19:53:00
2:53 PM,64.0,30.9,29,29.82,10.0,SSW,6.9,-,N/A,,Clear,210,2011-11-11 20:53:00
3:53 PM,64.0,27.0,25,29.82,10.0,West,4.6,-,N/A,,Clear,270,2011-11-11 21:53:00
4:53 PM,60.1,34.0,38,29.81,10.0,Calm,Calm,-,N/A,,Clear,0,2011-11-11 22:53:00
5:53 PM,50.0,36.0,59,29.82,10.0,South,3.5,-,N/A,,Clear,180,2011-11-11 23:53:00
6:53 PM,46.0,36.0,68,29.83,10.0,South,5.8,-,N/A,,Clear,180,2011-11-12 00:53:00
7:53 PM,46.0,39.9,79,29.82,10.0,South,8.1,-,N/A,,Clear,180,2011-11-12 01:53:00
8:53 PM,43.0,39.0,86,29.81,10.0,SSE,8.1,-,N/A,,Clear,160,2011-11-12 02:53:00
9:53 PM,41.0,37.9,89,29.80,10.0,South,9.2,-,N/A,,Clear,170,2011-11-12 03:53:00
10:53 PM,39.9,36.0,86,29.77,10.0,South,8.1,-,N/A,,Clear,190,2011-11-12 04:53:00
11:53 PM,39.9,36.0,86,29.75,10.0,SSE,3.5,-,N/A,,Clear,160,2011-11-12 05:53:00